createdAt,value
2023-02-22T01:11:55.301Z,101086.41
2023-02-22T01:14:23.729Z,101095.00
2023-02-22T01:16:51.059Z,101092.03
2023-02-22T01:19:17.606Z,101090.75
2023-02-22T01:21:44.034Z,101093.50
2023-02-22T01:24:10.515Z,101086.09
2023-02-22T01:26:38.415Z,101076.31
2023-02-22T01:29:05.094Z,101076.19
2023-02-22T01:31:31.689Z,101074.81
2023-02-22T01:33:58.213Z,101078.00
2023-02-22T01:36:24.678Z,101079.09
2023-02-22T01:38:51.115Z,101075.47
2023-02-22T01:41:18.489Z,101077.50
2023-02-22T01:43:45.867Z,101078.84
2023-02-22T01:46:26.966Z,101081.66
2023-02-22T01:49:05.941Z,101069.53
2023-02-22T01:51:37.722Z,101079.19
2023-02-22T01:54:10.101Z,101063.19
2023-02-22T01:56:41.359Z,101067.94
2023-02-22T01:59:10.949Z,101063.06
2023-02-22T02:01:39.909Z,101069.53
2023-02-22T02:04:11.851Z,101074.63
2023-02-22T02:10:21.641Z,101070.38
2023-02-22T02:12:51.090Z,101073.69
2023-02-22T02:15:26.413Z,101067.19
2023-02-22T02:17:54.898Z,101056.16
2023-02-22T02:20:32.698Z,101060.19
2023-02-22T02:23:14.497Z,101065.00
2023-02-22T02:28:50.610Z,101057.13
2023-02-22T02:31:27.632Z,101057.34
2023-02-22T02:34:04.252Z,101058.50
2023-02-22T02:36:49.033Z,101056.19
2023-02-22T02:39:52.158Z,101060.13
2023-02-22T02:42:22.876Z,101064.91
2023-02-22T02:45:15.427Z,101064.59
2023-02-22T02:47:47.961Z,101059.16
2023-02-22T02:50:30.662Z,101059.28
2023-02-22T02:53:02.455Z,101061.91
2023-02-22T02:55:31.696Z,101062.97
2023-02-22T02:57:59.357Z,101059.59
2023-02-22T03:00:31.827Z,101065.31
2023-02-22T03:03:16.837Z,101062.31
2023-02-22T03:06:24.445Z,101070.91
2023-02-22T03:09:03.650Z,101064.13
2023-02-22T03:12:02.169Z,101061.06
2023-02-22T03:14:45.510Z,101061.72
2023-02-22T03:17:16.087Z,101056.84
2023-02-22T03:19:47.584Z,101052.91
2023-02-22T03:22:50.893Z,101049.28
2023-02-22T03:25:22.982Z,101039.13
2023-02-22T03:27:53.987Z,101043.34
2023-02-22T03:30:26.643Z,101058.63
2023-02-22T03:32:59.473Z,101055.09
2023-02-22T03:35:31.995Z,101039.00
2023-02-22T03:38:02.043Z,101045.78
2023-02-22T03:40:33.486Z,101056.16
2023-02-22T03:43:05.007Z,101058.72
2023-02-22T03:45:32.152Z,101051.50
2023-02-22T03:48:21.673Z,101057.56
2023-02-22T03:50:49.598Z,101051.59
2023-02-22T03:53:18.625Z,101053.84
2023-02-22T03:55:51.788Z,101052.81
2023-02-22T03:58:21.758Z,101049.72
2023-02-22T04:00:53.008Z,101046.84
2023-02-22T04:03:21.404Z,101054.94
2023-02-22T04:05:48.088Z,101048.13
2023-02-22T04:08:14.970Z,101048.22
2023-02-22T04:10:41.581Z,101049.91
2023-02-22T04:13:08.171Z,101048.88
2023-02-22T04:15:35.228Z,101046.66
2023-02-22T04:18:01.664Z,101042.41
2023-02-22T04:20:28.075Z,101044.75
2023-02-22T04:22:55.643Z,101048.34
2023-02-22T04:25:23.709Z,101048.03
2023-02-22T04:27:50.297Z,101053.34
2023-02-22T04:30:18.741Z,101047.69
2023-02-22T04:32:45.609Z,101047.59
2023-02-22T04:35:12.350Z,101055.22
2023-02-22T04:37:38.908Z,101055.94
2023-02-22T04:40:09.129Z,101048.13
2023-02-22T04:42:36.380Z,101048.75
2023-02-22T04:45:04.112Z,101046.75
2023-02-22T04:47:30.586Z,101041.84
2023-02-22T04:49:57.197Z,101045.97
2023-02-22T04:52:23.656Z,101048.13
2023-02-22T04:54:50.750Z,101035.72
2023-02-22T04:57:17.202Z,101041.81
2023-02-22T04:59:43.659Z,101045.53
2023-02-22T05:02:10.135Z,101041.50
2023-02-22T05:04:38.505Z,101034.09
2023-02-22T05:07:05.161Z,101041.75
2023-02-22T05:09:31.566Z,101041.25
2023-02-22T07:51:02.867Z,101090.78
2023-02-22T07:53:31.669Z,101089.72
2023-02-22T07:55:58.805Z,101095.44
2023-02-22T07:58:27.435Z,101083.16
2023-02-22T08:00:54.615Z,101098.41
2023-02-22T08:03:23.867Z,101100.63
2023-02-22T08:05:56.116Z,101087.31
2023-02-22T09:21:59.988Z,101092.88
2023-02-22T09:24:27.343Z,101085.44
2023-02-22T09:26:54.147Z,101080.91
2023-02-22T09:29:25.704Z,101086.53
2023-02-22T09:31:54.750Z,101088.59
2023-02-22T09:34:29.406Z,101087.97
2023-02-22T09:36:57.872Z,101092.06
2023-02-22T09:39:24.777Z,101077.16
2023-02-22T09:42:09.915Z,101077.19
2023-02-22T09:45:03.446Z,101075.22
2023-02-22T09:47:41.194Z,101068.66
2023-02-22T09:50:16.293Z,101081.78
2023-02-22T09:53:00.621Z,101073.56
2023-02-22T09:55:34.817Z,101070.91
2023-02-22T09:58:14.048Z,101070.06
2023-02-22T10:00:43.748Z,101065.16
2023-02-22T10:03:34.621Z,101065.75
2023-02-22T10:06:10.556Z,101063.50
2023-02-22T10:08:41.722Z,101068.75
2023-02-22T10:11:10.815Z,101065.38
2023-02-22T10:13:48.651Z,101063.97
2023-02-22T10:16:24.184Z,101062.00
2023-02-22T10:19:15.070Z,101051.81
2023-02-22T10:22:05.186Z,101057.09
2023-02-22T10:24:39.763Z,101055.88
2023-02-22T10:27:18.930Z,101057.66
2023-02-22T10:29:53.013Z,101054.63
2023-02-22T10:32:26.144Z,101056.34
2023-02-22T10:34:55.379Z,101044.03
2023-02-22T10:37:31.215Z,101055.38
2023-02-22T10:40:23.967Z,101056.00
2023-02-22T10:42:50.604Z,101043.66
2023-02-22T10:45:34.521Z,101050.81
2023-02-22T10:48:08.427Z,101046.47
2023-02-22T10:50:37.558Z,101046.19
2023-02-22T10:53:04.084Z,101045.94
2023-02-22T10:55:31.217Z,101052.56
2023-02-22T10:58:04.633Z,101041.63
2023-02-22T11:00:37.211Z,101047.59
2023-02-22T11:03:17.674Z,101043.28
2023-02-22T11:05:44.951Z,101039.66
2023-02-22T11:08:20.628Z,101041.50
2023-02-22T11:10:48.921Z,101035.31
2023-02-22T11:13:25.972Z,101046.78
2023-02-22T11:15:54.561Z,101035.31
2023-02-22T11:18:27.536Z,101046.41
2023-02-22T11:21:07.628Z,101036.53
2023-02-22T11:23:36.193Z,101035.69
2023-02-22T11:26:20.319Z,101036.38
2023-02-22T11:28:50.993Z,101029.00
2023-02-22T11:31:22.275Z,101033.66
2023-02-22T11:33:59.342Z,101023.69
2023-02-22T11:36:42.870Z,101028.53
2023-02-22T11:39:34.627Z,101018.28
2023-02-22T11:42:23.106Z,101014.50
2023-02-22T11:44:57.014Z,101018.63
2023-02-22T11:47:24.659Z,101010.66
2023-02-22T11:49:53.454Z,101004.97
2023-02-22T11:52:32.239Z,101006.25
2023-02-22T11:55:09.881Z,100999.66
2023-02-22T11:57:46.344Z,100995.78
2023-02-22T12:00:24.901Z,100996.50
2023-02-22T12:03:13.709Z,100994.56
2023-02-22T12:06:10.615Z,100990.56
2023-02-22T12:08:37.492Z,100984.16
2023-02-22T12:11:03.926Z,100983.53
2023-02-22T12:13:48.506Z,100991.53
2023-02-22T12:16:44.234Z,100983.56
2023-02-22T12:19:19.544Z,100983.53
2023-02-22T12:21:53.155Z,100984.03
2023-02-22T12:24:24.118Z,100979.81
2023-02-22T12:26:56.912Z,100981.38
2023-02-22T12:29:30.961Z,100981.88
2023-02-22T12:32:26.782Z,100978.38
2023-02-22T12:34:59.506Z,100979.94
2023-02-22T12:37:51.106Z,100976.06
2023-02-22T12:40:29.619Z,100985.25
2023-02-22T12:42:56.008Z,100975.47
2023-02-22T12:45:36.558Z,100982.94
2023-02-22T12:48:26.239Z,100986.47
2023-02-22T12:50:59.254Z,100976.19
2023-02-22T12:53:31.273Z,100980.69
2023-02-22T12:56:25.724Z,100986.69
2023-02-22T12:59:10.065Z,100984.41
2023-02-22T13:01:46.745Z,100978.84
2023-02-22T13:04:21.073Z,100981.28
2023-02-22T13:07:23.974Z,100979.06
2023-02-22T13:10:02.408Z,100977.13
2023-02-22T13:12:36.760Z,100968.81
2023-02-22T13:15:09.314Z,100977.03
2023-02-22T13:17:54.783Z,100966.97
2023-02-22T13:20:41.217Z,100964.94
2023-02-22T13:23:26.294Z,100966.88
2023-02-22T13:26:29.028Z,100961.78
2023-02-22T13:29:04.438Z,100962.63
2023-02-22T13:31:55.610Z,100965.41
2023-02-22T13:34:40.203Z,100959.72
2023-02-22T13:37:14.355Z,100960.81
2023-02-22T13:39:54.723Z,100950.78
2023-02-22T13:43:03.751Z,100954.03
2023-02-22T13:45:39.339Z,100953.78
2023-02-22T13:48:17.662Z,100952.59
2023-02-22T13:51:02.634Z,100954.25
2023-02-22T13:53:39.656Z,100953.56
2023-02-22T13:56:07.091Z,100955.69
2023-02-22T15:42:20.924Z,100897.09
2023-02-22T15:58:18.026Z,100893.72
2023-02-22T16:00:49.866Z,100894.94
2023-02-22T16:03:23.097Z,100893.22
2023-02-22T16:05:53.115Z,100883.94
2023-02-22T16:08:24.103Z,100888.28
2023-02-22T16:11:02.812Z,100881.63
2023-02-22T16:13:33.219Z,100886.22
2023-02-22T16:16:04.411Z,100881.50
2023-02-22T16:18:36.820Z,100887.78
2023-02-22T16:21:05.331Z,100883.19
2023-02-22T16:23:33.543Z,100884.19
2023-02-22T16:39:30.736Z,100877.13
2023-02-22T16:42:00.307Z,100881.22
2023-02-22T16:44:27.642Z,100874.78
2023-02-22T16:46:56.260Z,100878.28
2023-02-22T16:49:25.915Z,100883.50
2023-02-22T16:52:03.291Z,100883.59
2023-02-22T16:54:43.186Z,100882.16
2023-02-22T16:57:17.652Z,100882.38
2023-02-22T16:59:44.816Z,100886.50
2023-02-22T17:02:15.584Z,100882.13
2023-02-22T17:04:43.886Z,100882.63
2023-02-22T17:07:10.393Z,100882.50
2023-02-22T17:09:36.840Z,100881.38
2023-02-22T17:12:03.554Z,100875.97
2023-02-22T17:35:27.284Z,100880.66
2023-02-22T18:33:30.775Z,100864.09
2023-02-22T18:35:59.498Z,100868.91
2023-02-22T18:38:26.420Z,100863.00
2023-02-22T18:40:59.868Z,100868.78
2023-02-22T18:43:26.990Z,100862.78
2023-02-22T18:45:53.834Z,100864.41
2023-02-22T18:48:20.369Z,100862.28
2023-02-22T18:50:46.842Z,100870.06
2023-02-22T18:53:13.308Z,100863.38
2023-02-22T18:55:39.910Z,100873.78
2023-02-22T18:58:06.362Z,100862.03
2023-02-22T19:00:35.233Z,100865.31
2023-02-22T19:03:01.782Z,100850.13
2023-02-22T19:05:28.652Z,100849.41
2023-02-22T19:07:55.152Z,100851.84
2023-02-22T19:10:22.526Z,100846.97
2023-02-22T19:12:49.126Z,100848.88
2023-02-22T19:15:15.633Z,100854.69
2023-02-22T19:17:42.902Z,100855.47
2023-02-22T19:20:10.669Z,100862.47
2023-02-22T19:25:05.087Z,100865.28
2023-02-22T19:27:33.895Z,100863.13
2023-02-22T19:30:00.712Z,100866.19
2023-02-22T19:32:27.384Z,100860.78
2023-02-22T19:35:02.235Z,100860.59
2023-02-22T19:37:34.158Z,100859.78
2023-02-22T19:40:02.812Z,100859.44
2023-02-22T19:42:29.693Z,100863.81
2023-02-22T19:44:56.173Z,100859.13
2023-02-22T19:47:22.633Z,100863.19
2023-02-22T19:49:50.269Z,100863.59
2023-02-22T19:52:17.002Z,100857.31
2023-02-22T19:54:44.456Z,100863.69
2023-02-22T19:57:11.564Z,100856.56
2023-02-22T19:59:39.019Z,100858.59
2023-02-22T20:02:06.204Z,100860.53
2023-02-22T20:04:34.136Z,100862.22
2023-02-22T20:07:00.670Z,100853.63
2023-02-22T20:09:36.217Z,100860.75
2023-02-22T20:12:06.784Z,100857.75
2023-02-22T20:14:34.136Z,100856.22
2023-02-22T20:17:01.029Z,100860.53
2023-02-22T20:19:28.435Z,100850.91
2023-02-22T20:21:56.136Z,100854.31
2023-02-22T20:24:23.923Z,100847.28
2023-02-22T20:26:51.387Z,100854.19
2023-02-22T20:29:17.898Z,100853.34
2023-02-22T20:31:49.134Z,100853.34
2023-02-22T20:34:15.661Z,100858.09
2023-02-22T20:36:42.272Z,100857.69
2023-02-22T20:39:13.331Z,100854.94
2023-02-22T20:41:42.492Z,100859.72
2023-02-22T20:44:13.466Z,100852.09
2023-02-22T20:46:39.981Z,100850.41
2023-02-22T20:49:08.831Z,100843.72
2023-02-22T20:51:35.703Z,100847.66
2023-02-22T20:54:02.408Z,100842.25
2023-02-22T20:56:31.578Z,100841.59
2023-02-22T20:59:00.480Z,100840.22
2023-02-22T21:01:27.264Z,100849.88
2023-02-22T21:03:53.916Z,100845.84
2023-02-22T21:06:21.888Z,100851.91
2023-02-22T21:08:57.279Z,100859.41
2023-02-22T21:11:25.847Z,100849.03
2023-02-22T21:13:53.206Z,100850.19
2023-02-22T21:16:25.824Z,100853.69
2023-02-22T21:19:00.104Z,100847.00
2023-02-22T21:21:27.920Z,100847.75
2023-02-22T21:23:56.394Z,100855.06
2023-02-22T21:26:29.642Z,100848.69
2023-02-22T21:29:00.389Z,100848.78
2023-02-22T21:31:27.770Z,100844.53
2023-02-22T21:33:56.371Z,100839.56
2023-02-22T21:36:26.673Z,100844.22
2023-02-22T21:38:56.198Z,100839.25
2023-02-22T21:41:33.948Z,100837.25
2023-02-22T21:44:00.523Z,100834.25
2023-02-22T21:46:29.230Z,100830.69
2023-02-22T21:48:59.048Z,100833.59
2023-02-22T21:51:34.185Z,100828.31
2023-02-22T21:54:03.251Z,100831.81
2023-02-22T21:56:32.580Z,100822.31
2023-02-22T21:59:05.259Z,100825.56
2023-02-22T22:01:36.810Z,100819.28
2023-02-22T22:04:04.352Z,100822.91
2023-02-22T22:06:32.511Z,100816.00
2023-02-22T22:09:04.610Z,100813.38
2023-02-22T22:11:31.032Z,100820.97
2023-02-22T22:13:58.955Z,100819.47
2023-02-22T22:16:28.627Z,100818.63
2023-02-22T22:18:55.350Z,100811.53
2023-02-22T22:21:24.024Z,100814.16
2023-02-22T22:23:55.817Z,100813.53
2023-02-22T22:26:25.918Z,100813.09
2023-02-22T22:28:56.127Z,100815.72
2023-02-22T22:31:24.702Z,100815.72
2023-02-22T22:33:51.959Z,100812.25
2023-02-22T22:36:21.275Z,100804.94
2023-02-22T22:38:48.647Z,100804.19
2023-02-22T22:41:19.550Z,100810.84
2023-02-22T22:43:47.074Z,100801.84
2023-02-22T22:46:16.165Z,100802.91
2023-02-22T22:48:46.688Z,100801.22
2023-02-22T22:51:19.058Z,100803.94
2023-02-22T22:53:47.842Z,100805.75
2023-02-22T22:56:21.457Z,100796.97
2023-02-22T22:58:54.265Z,100802.78
2023-02-22T23:01:27.251Z,100789.47
2023-02-22T23:04:01.607Z,100793.34
2023-02-22T23:06:33.781Z,100798.84
2023-02-22T23:09:01.826Z,100784.06
2023-02-22T23:11:30.332Z,100786.25
2023-02-22T23:13:56.835Z,100788.47
2023-02-22T23:16:24.419Z,100792.38
2023-02-22T23:18:51.428Z,100781.69
2023-02-22T23:21:19.673Z,100784.91
2023-02-22T23:23:51.269Z,100786.13
2023-02-22T23:26:18.048Z,100788.06
2023-02-22T23:28:47.120Z,100779.22
2023-02-22T23:31:16.727Z,100782.41
2023-02-22T23:33:45.253Z,100781.22
2023-02-22T23:36:12.465Z,100775.94
2023-02-22T23:38:41.774Z,100785.94
2023-02-22T23:41:10.956Z,100784.78
2023-02-22T23:43:41.531Z,100779.59
2023-02-22T23:46:11.663Z,100776.00
2023-02-22T23:48:39.142Z,100781.88
2023-02-22T23:51:10.939Z,100788.50
2023-02-22T23:53:39.226Z,100782.44
2023-02-22T23:56:09.980Z,100786.91
2023-02-22T23:58:38.427Z,100779.91
